Time;durP1;ratioP1;P1;durP2;ratioP2;P2;SDS_P1;SDS_P2;PMS_P1;PMS_P2;Temp;Humidity;BMP_temperature;BMP_pressure;BME280_temperature;BME280_humidity;BME280_pressure;Samples;Min_cycle;Max_cycle;Signal;HPM_P1;HPM_P2
2021/01/16 00:00:23;;;;;;;3.67;1.67;;;9.70;99.90;;;;;;5026450;28;20026;-83
2021/01/16 00:02:48;;;;;;;3.00;1.40;;;9.70;99.90;;;;;;5026487;28;20392;-83
2021/01/16 00:05:17;;;;;;;2.28;0.93;;;9.70;99.90;;;;;;5027134;28;20025;-82
2021/01/16 00:07:44;;;;;;;2.05;0.90;;;9.80;99.90;;;;;;5028320;28;20029;-81
2021/01/16 00:10:12;;;;;;;1.10;0.50;;;9.80;99.90;;;;;;5027552;28;20156;-82
2021/01/16 00:12:39;;;;;;;1.60;0.70;;;9.80;99.90;;;;;;5013982;28;20128;-82
2021/01/16 00:15:06;;;;;;;2.78;0.50;;;9.90;99.90;;;;;;5030580;28;20025;-80
2021/01/16 00:17:31;;;;;;;0.32;0.10;;;9.90;99.90;;;;;;5030361;28;20032;-81
2021/01/16 00:19:57;;;;;;;1.08;0.40;;;9.90;99.90;;;;;;5046942;28;20034;-81
2021/01/16 00:22:23;;;;;;;0.25;0.25;;;9.90;99.90;;;;;;5030515;28;20034;-82
2021/01/16 00:24:48;;;;;;;0.38;0.30;;;10.00;99.90;;;;;;5031031;28;20033;-82
2021/01/16 00:27:14;;;;;;;0.70;0.30;;;10.00;99.90;;;;;;5030585;28;20083;-82
2021/01/16 00:29:40;;;;;;;0.55;0.03;;;10.00;99.90;;;;;;5030408;28;20071;-82
2021/01/16 00:32:05;;;;;;;0.10;0.10;;;10.00;99.90;;;;;;5029844;28;20033;-83
2021/01/16 00:34:31;;;;;;;0.20;0.15;;;10.10;99.90;;;;;;5014301;28;20047;-83
2021/01/16 00:36:57;;;;;;;0.82;0.22;;;10.10;99.90;;;;;;5030912;28;20041;-80
2021/01/16 00:39:22;;;;;;;0.15;0.10;;;10.10;99.90;;;;;;5013970;28;20025;-80
2021/01/16 00:41:48;;;;;;;0.38;0.10;;;10.20;99.90;;;;;;5030560;28;20042;-83
2021/01/16 00:44:14;;;;;;;0.73;0.15;;;10.20;99.90;;;;;;5013587;28;20533;-81
2021/01/16 00:46:40;;;;;;;1.35;0.25;;;10.20;99.90;;;;;;5013393;28;20029;-83
2021/01/16 00:49:05;;;;;;;0.08;0.00;;;10.30;99.90;;;;;;5030500;28;20044;-80
2021/01/16 00:51:31;;;;;;;0.38;0.20;;;10.30;99.90;;;;;;5012984;28;20034;-81
2021/01/16 00:53:57;;;;;;;0.10;0.10;;;10.30;99.90;;;;;;5029348;28;20037;-81
2021/01/16 00:56:22;;;;;;;0.45;0.20;;;10.30;99.90;;;;;;5013224;28;20530;-81
2021/01/16 00:58:48;;;;;;;0.20;0.10;;;10.30;99.90;;;;;;5030036;28;20499;-82
2021/01/16 01:01:14;;;;;;;0.73;0.20;;;10.30;99.90;;;;;;5029590;28;20029;-82
2021/01/16 01:03:39;;;;;;;0.35;0.03;;;10.40;99.90;;;;;;5013123;28;20419;-83
2021/01/16 01:06:05;;;;;;;0.10;0.10;;;10.30;99.90;;;;;;5029424;28;20135;-84
2021/01/16 01:08:31;;;;;;;0.98;0.20;;;10.40;99.90;;;;;;5013033;28;20033;-81
2021/01/16 01:10:57;;;;;;;2.33;0.13;;;10.30;99.90;;;;;;5029448;28;20575;-82
2021/01/16 01:13:23;;;;;;;0.43;0.10;;;10.40;99.90;;;;;;5029269;28;20636;-81
2021/01/16 01:15:49;;;;;;;0.75;0.10;;;10.40;99.90;;;;;;5029580;28;20039;-83
2021/01/16 01:18:14;;;;;;;1.08;0.63;;;10.40;99.90;;;;;;5013060;28;20033;-83
2021/01/16 01:20:40;;;;;;;0.35;0.20;;;10.40;99.90;;;;;;5012995;28;20029;-80
2021/01/16 01:23:06;;;;;;;1.85;0.82;;;10.40;99.90;;;;;;5028769;28;20410;-82
2021/01/16 01:25:32;;;;;;;2.13;0.30;;;10.40;99.90;;;;;;5031129;28;20452;-81
2021/01/16 01:28:00;;;;;;;1.23;0.22;;;10.50;99.90;;;;;;5029117;28;20061;-83
2021/01/16 01:30:28;;;;;;;0.40;0.10;;;10.50;99.90;;;;;;5012316;28;20041;-84
2021/01/16 01:32:55;;;;;;;1.08;0.17;;;10.50;99.90;;;;;;5030121;28;20480;-81
2021/01/16 01:35:21;;;;;;;0.95;0.30;;;10.50;99.90;;;;;;5029472;28;20049;-80
2021/01/16 01:37:50;;;;;;;0.88;0.28;;;10.50;99.90;;;;;;5030576;28;20036;-83
2021/01/16 01:40:18;;;;;;;2.13;0.15;;;10.50;99.90;;;;;;5029435;28;20026;-81
2021/01/16 01:42:50;;;;;;;1.08;0.20;;;10.50;99.90;;;;;;5029302;28;20068;-83
2021/01/16 01:45:17;;;;;;;0.57;0.20;;;10.50;99.90;;;;;;5030583;28;20056;-82
2021/01/16 01:47:44;;;;;;;0.40;0.08;;;10.50;99.90;;;;;;5028891;28;20469;-81
2021/01/16 01:50:11;;;;;;;0.10;0.10;;;10.50;99.90;;;;;;5028778;28;20060;-82
2021/01/16 01:52:38;;;;;;;1.20;0.10;;;10.50;99.90;;;;;;5011985;28;20057;-82
2021/01/16 01:55:06;;;;;;;0.95;0.10;;;10.60;99.90;;;;;;5012836;28;20400;-81
2021/01/16 01:57:39;;;;;;;1.30;0.30;;;10.60;99.90;;;;;;5028431;28;20025;-82
2021/01/16 02:00:07;;;;;;;0.57;0.20;;;10.50;99.90;;;;;;5030382;28;20022;-83
2021/01/16 02:02:37;;;;;;;2.70;0.20;;;10.60;99.90;;;;;;5012396;28;20044;-83
2021/01/16 02:05:07;;;;;;;2.15;0.77;;;10.60;99.90;;;;;;5029162;28;20080;-81
2021/01/16 02:07:39;;;;;;;0.52;0.35;;;10.60;99.90;;;;;;5029917;28;20412;-82
2021/01/16 02:10:08;;;;;;;1.02;0.10;;;10.60;99.90;;;;;;5028490;28;20025;-82
2021/01/16 02:12:35;;;;;;;0.20;0.10;;;10.60;99.90;;;;;;5028176;28;20049;-83
2021/01/16 02:15:21;;;;;;;0.10;0.10;;;10.60;99.90;;;;;;5012574;28;20488;-82
2021/01/16 02:17:52;;;;;;;1.38;1.02;;;10.60;99.90;;;;;;5028037;28;20036;-82
2021/01/16 02:20:26;;;;;;;0.50;0.50;;;10.70;99.90;;;;;;5029235;28;20036;-81
2021/01/16 02:23:12;;;;;;;2.20;0.50;;;10.70;99.90;;;;;;5029233;28;20037;-82
2021/01/16 02:25:40;;;;;;;1.73;0.70;;;10.70;99.90;;;;;;5017981;28;20045;-82
2021/01/16 02:28:19;;;;;;;0.95;0.60;;;10.70;99.90;;;;;;5027857;28;20026;-80
2021/01/16 02:30:45;;;;;;;2.47;0.75;;;10.70;99.90;;;;;;5027992;28;20025;-83
2021/01/16 02:33:15;;;;;;;0.73;0.70;;;10.80;99.90;;;;;;5044116;28;20033;-83
2021/01/16 02:36:05;;;;;;;2.00;0.75;;;10.70;99.90;;;;;;5027996;28;20033;-82
2021/01/16 02:38:42;;;;;;;1.02;0.60;;;10.70;99.90;;;;;;5029235;28;20017;-80
2021/01/16 02:41:31;;;;;;;1.50;0.60;;;10.80;99.90;;;;;;5028399;28;20388;-81
2021/01/16 02:44:07;;;;;;;1.20;0.35;;;10.80;99.90;;;;;;5029093;28;20449;-82
2021/01/16 02:46:42;;;;;;;1.45;0.50;;;10.80;99.90;;;;;;5027979;28;20492;-82
2021/01/16 02:49:56;;;;;;;0.50;0.50;;;10.80;99.90;;;;;;5029039;28;20104;-84
2021/01/16 02:52:26;;;;;;;0.80;0.50;;;10.80;99.90;;;;;;5026323;28;20088;-83
2021/01/16 02:54:52;;;;;;;1.02;0.60;;;10.80;99.90;;;;;;5011755;28;20331;-82
2021/01/16 02:57:18;;;;;;;1.02;0.50;;;10.90;99.90;;;;;;5010916;28;20543;-83
2021/01/16 02:59:47;;;;;;;0.65;0.40;;;10.80;99.90;;;;;;5027859;28;20105;-82
2021/01/16 03:02:18;;;;;;;1.67;0.70;;;10.80;99.90;;;;;;5027413;28;20049;-83
2021/01/16 03:04:45;;;;;;;2.78;0.45;;;10.80;99.90;;;;;;5027014;28;20034;-82
2021/01/16 03:07:12;;;;;;;2.92;0.68;;;10.70;99.90;;;;;;5027461;28;20099;-81
2021/01/16 03:09:39;;;;;;;1.25;0.50;;;10.60;99.90;;;;;;5028853;28;20018;-83
2021/01/16 03:12:07;;;;;;;2.13;0.50;;;10.50;99.90;;;;;;5028336;28;20103;-81
2021/01/16 03:14:56;;;;;;;2.13;0.60;;;10.40;99.90;;;;;;5027201;28;20579;-82
2021/01/16 03:17:34;;;;;;;3.40;0.70;;;10.30;99.90;;;;;;5027432;28;20420;-82
2021/01/16 03:20:02;;;;;;;1.85;0.60;;;10.20;99.90;;;;;;5027638;28;20057;-83
2021/01/16 03:22:29;;;;;;;7.57;1.00;;;10.20;99.90;;;;;;5027144;28;20048;-81
2021/01/16 03:24:57;;;;;;;10.80;1.48;;;10.10;99.90;;;;;;5028417;28;20380;-83
2021/01/16 03:27:24;;;;;;;5.03;0.95;;;10.10;99.90;;;;;;5027310;28;20396;-82
2021/01/16 03:29:50;;;;;;;5.47;0.82;;;10.10;99.90;;;;;;5027262;28;20424;-82
2021/01/16 03:32:17;;;;;;;10.00;1.92;;;10.00;99.90;;;;;;5027562;28;20029;-81
2021/01/16 03:34:45;;;;;;;8.85;1.15;;;10.00;99.90;;;;;;5027251;28;20120;-81
2021/01/16 03:37:11;;;;;;;8.27;1.58;;;10.00;99.90;;;;;;5011144;28;20022;-82
2021/01/16 03:39:37;;;;;;;6.90;1.08;;;10.00;99.90;;;;;;5027581;28;20556;-82
2021/01/16 03:42:04;;;;;;;14.60;1.88;;;9.90;99.90;;;;;;5011193;28;20033;-81
2021/01/16 03:44:29;;;;;;;9.00;1.10;;;9.90;99.90;;;;;;5028805;28;20103;-83
2021/01/16 03:46:55;;;;;;;12.32;1.27;;;9.80;99.90;;;;;;5014788;28;20037;-82
2021/01/16 03:49:21;;;;;;;9.32;0.95;;;9.70;99.90;;;;;;5014866;28;20169;-80
2021/01/16 03:51:47;;;;;;;6.78;1.55;;;9.60;99.90;;;;;;5032285;28;20095;-82
2021/01/16 03:54:12;;;;;;;9.13;2.50;;;9.50;99.90;;;;;;5032472;28;20064;-81
2021/01/16 03:56:38;;;;;;;7.57;1.08;;;9.40;99.90;;;;;;5014650;28;20026;-83
2021/01/16 03:59:04;;;;;;;5.72;0.77;;;9.30;99.90;;;;;;5032660;28;20107;-79
2021/01/16 04:01:31;;;;;;;7.22;1.60;;;9.20;99.90;;;;;;5030632;28;20030;-83
2021/01/16 04:03:57;;;;;;;8.52;0.90;;;9.10;99.90;;;;;;5031965;28;20033;-85
2021/01/16 04:06:23;;;;;;;6.63;1.67;;;9.10;99.90;;;;;;5030939;28;20114;-81
2021/01/16 04:08:49;;;;;;;6.45;1.05;;;9.00;99.90;;;;;;5032522;28;20045;-82
2021/01/16 04:11:14;;;;;;;9.27;1.40;;;9.00;99.90;;;;;;5014486;28;20037;-83
2021/01/16 04:13:40;;;;;;;11.20;1.77;;;9.00;99.90;;;;;;5031281;28;20128;-83
2021/01/16 04:16:06;;;;;;;8.82;1.40;;;9.00;99.90;;;;;;5032465;28;20499;-81
2021/01/16 04:18:33;;;;;;;6.72;1.13;;;9.10;99.90;;;;;;5031022;28;20052;-84
2021/01/16 04:20:59;;;;;;;14.50;1.50;;;9.20;99.90;;;;;;5030336;28;20026;-81
2021/01/16 04:23:25;;;;;;;7.65;1.52;;;9.20;99.90;;;;;;5031610;28;20029;-84
2021/01/16 04:25:51;;;;;;;9.45;1.45;;;9.30;99.90;;;;;;5030511;28;20495;-82
2021/01/16 04:28:16;;;;;;;9.23;1.58;;;9.30;99.90;;;;;;5030141;28;20033;-82
2021/01/16 04:30:42;;;;;;;13.23;2.15;;;9.30;99.90;;;;;;5031148;28;20361;-84
2021/01/16 04:33:08;;;;;;;14.73;2.95;;;9.30;99.90;;;;;;5013458;28;20037;-81
2021/01/16 04:35:34;;;;;;;16.85;1.77;;;9.30;99.90;;;;;;5013512;28;20030;-82
2021/01/16 04:38:00;;;;;;;15.65;4.03;;;9.40;99.90;;;;;;5029871;28;20036;-84
2021/01/16 04:40:27;;;;;;;12.80;2.13;;;9.30;99.90;;;;;;5031317;28;20027;-81
2021/01/16 04:42:54;;;;;;;16.92;1.60;;;9.30;99.90;;;;;;5030818;28;20400;-82
2021/01/16 04:45:20;;;;;;;14.07;1.88;;;9.20;99.90;;;;;;5030910;28;20178;-82
2021/01/16 04:47:47;;;;;;;21.05;1.98;;;9.10;99.90;;;;;;5029783;28;20060;-84
2021/01/16 04:50:16;;;;;;;12.05;1.48;;;9.00;99.90;;;;;;5013038;28;20038;-81
2021/01/16 04:52:43;;;;;;;12.33;2.53;;;8.90;99.90;;;;;;5029286;28;20442;-84
2021/01/16 04:55:11;;;;;;;13.07;1.65;;;8.80;99.90;;;;;;5013188;28;20048;-84
2021/01/16 04:57:39;;;;;;;7.88;2.00;;;8.70;99.90;;;;;;5029820;28;20026;-84
2021/01/16 05:00:07;;;;;;;12.85;2.35;;;8.60;99.90;;;;;;5030451;28;20411;-80
2021/01/16 05:02:37;;;;;;;19.77;2.40;;;8.50;99.90;;;;;;5030587;28;20033;-81
2021/01/16 05:05:03;;;;;;;17.48;2.05;;;8.50;99.90;;;;;;5029434;28;20038;-82
2021/01/16 05:07:31;;;;;;;18.75;3.50;;;8.40;99.90;;;;;;5029348;28;20045;-82
2021/01/16 05:10:00;;;;;;;11.57;2.20;;;8.40;99.90;;;;;;5030614;28;20029;-84
2021/01/16 05:12:32;;;;;;;15.27;1.88;;;8.40;99.90;;;;;;5028911;28;20515;-81
2021/01/16 05:15:08;;;;;;;18.67;3.13;;;8.30;99.90;;;;;;5029201;28;20049;-82
2021/01/16 05:17:41;;;;;;;16.00;2.28;;;8.30;99.90;;;;;;5029156;28;20116;-83
2021/01/16 05:20:11;;;;;;;20.08;2.17;;;8.30;99.90;;;;;;5030444;28;20025;-83
2021/01/16 05:22:37;;;;;;;20.60;3.65;;;8.30;99.90;;;;;;5012454;28;20041;-82
2021/01/16 05:25:06;;;;;;;18.30;2.13;;;8.30;99.90;;;;;;5029332;28;20376;-85
2021/01/16 05:27:34;;;;;;;24.95;3.92;;;8.20;99.90;;;;;;5029298;28;20025;-83
2021/01/16 05:30:08;;;;;;;19.38;3.78;;;8.20;99.90;;;;;;5029063;28;20033;-83
2021/01/16 05:32:33;;;;;;;14.90;2.33;;;8.10;99.90;;;;;;5028564;28;20029;-81
2021/01/16 05:35:20;;;;;;;26.30;3.30;;;8.10;99.90;;;;;;5028654;28;20025;-79
2021/01/16 05:37:47;;;;;;;23.75;2.85;;;8.10;99.90;;;;;;5028547;28;20029;-83
2021/01/16 05:40:14;;;;;;;22.10;4.13;;;8.20;99.90;;;;;;5029888;28;20067;-80
2021/01/16 05:42:40;;;;;;;23.00;2.60;;;8.10;99.90;;;;;;5029608;28;20089;-80
2021/01/16 05:45:08;;;;;;;15.32;3.20;;;8.10;99.90;;;;;;5028611;28;20120;-79
2021/01/16 05:47:35;;;;;;;15.45;2.67;;;8.10;99.90;;;;;;5029713;28;20496;-80
2021/01/16 05:50:01;;;;;;;24.08;3.58;;;8.00;99.90;;;;;;5012021;28;20112;-80
2021/01/16 05:52:27;;;;;;;23.08;2.97;;;8.00;99.90;;;;;;5011561;28;20493;-80
2021/01/16 05:55:00;;;;;;;20.15;2.88;;;8.00;99.90;;;;;;5029472;28;20026;-80
2021/01/16 05:57:26;;;;;;;18.25;3.03;;;7.90;99.90;;;;;;5011715;28;20738;-83
2021/01/16 05:59:59;;;;;;;23.17;2.75;;;7.90;99.90;;;;;;5028399;28;20040;-84
2021/01/16 06:02:30;;;;;;;19.75;2.25;;;7.90;99.90;;;;;;5029720;28;20026;-81
2021/01/16 06:04:57;;;;;;;22.92;3.40;;;7.90;99.90;;;;;;5027940;28;20052;-79
2021/01/16 06:07:23;;;;;;;18.67;2.50;;;7.90;99.90;;;;;;5028388;28;20032;-80
2021/01/16 06:09:54;;;;;;;32.15;4.25;;;7.90;99.90;;;;;;5028085;28;20245;-82
2021/01/16 06:12:21;;;;;;;21.98;2.72;;;7.80;99.90;;;;;;5027896;28;20045;-81
2021/01/16 06:14:49;;;;;;;18.50;2.95;;;7.80;99.90;;;;;;5027860;28;20558;-81
2021/01/16 06:17:19;;;;;;;24.27;2.67;;;7.80;99.90;;;;;;5029467;28;20039;-81
2021/01/16 06:19:49;;;;;;;23.42;3.13;;;7.80;99.90;;;;;;5027748;28;20108;-84
2021/01/16 06:22:17;;;;;;;22.63;3.85;;;7.80;99.90;;;;;;5027668;28;20022;-84
2021/01/16 06:24:48;;;;;;;25.48;3.15;;;7.80;99.90;;;;;;5011312;28;20530;-80
2021/01/16 06:27:24;;;;;;;19.77;2.55;;;7.90;99.90;;;;;;5028647;28;20454;-82
2021/01/16 06:30:01;;;;;;;23.00;3.47;;;7.80;99.90;;;;;;5011104;28;20025;-80
2021/01/16 06:32:28;;;;;;;16.38;2.90;;;7.80;99.90;;;;;;5027547;28;20064;-81
2021/01/16 06:35:11;;;;;;;21.20;3.45;;;7.80;99.90;;;;;;5011174;28;20029;-81
2021/01/16 06:37:50;;;;;;;20.75;2.80;;;7.70;99.90;;;;;;5028907;28;20423;-80
2021/01/16 06:40:30;;;;;;;20.50;3.47;;;7.70;99.90;;;;;;5010825;28;20026;-82
2021/01/16 06:42:57;;;;;;;23.33;3.22;;;7.80;99.90;;;;;;5027341;28;20036;-80
2021/01/16 06:45:24;;;;;;;17.05;2.13;;;7.80;99.90;;;;;;5027202;28;20029;-81
2021/01/16 06:48:00;;;;;;;31.00;4.03;;;7.80;99.90;;;;;;5028419;28;20156;-80
2021/01/16 06:50:28;;;;;;;18.25;2.60;;;7.80;99.90;;;;;;5027153;28;20026;-81
2021/01/16 06:52:54;;;;;;;21.52;2.92;;;7.90;99.90;;;;;;5026893;28;20025;-80
2021/01/16 06:55:21;;;;;;;21.15;2.55;;;7.90;99.90;;;;;;5010682;28;20021;-82
2021/01/16 06:57:47;;;;;;;21.38;3.00;;;7.90;99.90;;;;;;5010432;28;20037;-79
2021/01/16 07:00:14;;;;;;;19.67;3.65;;;7.90;99.90;;;;;;5026981;28;20032;-82
2021/01/16 07:02:42;;;;;;;19.58;2.55;;;7.90;99.90;;;;;;5026785;28;20033;-82
2021/01/16 07:05:20;;;;;;;24.98;3.42;;;7.90;99.90;;;;;;5010522;28;20134;-82
2021/01/16 07:07:48;;;;;;;27.35;4.45;;;7.80;99.90;;;;;;5028171;28;20420;-83
2021/01/16 07:10:15;;;;;;;23.05;3.92;;;7.70;99.90;;;;;;5010305;28;20036;-79
2021/01/16 07:12:47;;;;;;;19.35;4.18;;;7.70;99.90;;;;;;5026414;28;20050;-81
2021/01/16 07:15:13;;;;;;;16.35;2.28;;;7.60;99.90;;;;;;5028116;28;20180;-80
2021/01/16 07:17:39;;;;;;;20.05;3.15;;;7.60;99.90;;;;;;5010597;28;20116;-82
2021/01/16 07:20:09;;;;;;;13.18;2.13;;;7.60;99.90;;;;;;5009736;28;20047;-84
2021/01/16 07:22:41;;;;;;;34.72;3.58;;;7.50;99.90;;;;;;5026794;28;20022;-82
2021/01/16 07:25:08;;;;;;;15.07;2.33;;;7.50;99.90;;;;;;5026829;28;20021;-81
2021/01/16 07:27:39;;;;;;;20.45;4.00;;;7.50;99.90;;;;;;5027841;28;20018;-80
2021/01/16 07:30:06;;;;;;;27.63;3.58;;;7.50;99.90;;;;;;5027876;28;20103;-81
2021/01/16 07:32:35;;;;;;;27.10;2.75;;;7.50;99.90;;;;;;5010012;28;20612;-83
2021/01/16 07:35:02;;;;;;;21.63;4.10;;;7.50;99.90;;;;;;5026606;28;20435;-81
2021/01/16 07:37:30;;;;;;;22.05;3.55;;;7.40;99.90;;;;;;5010069;28;20111;-79
2021/01/16 07:39:57;;;;;;;28.15;4.28;;;7.50;99.90;;;;;;5010546;28;20025;-80
2021/01/16 07:42:26;;;;;;;20.83;2.80;;;7.50;99.90;;;;;;5026216;28;20056;-79
2021/01/16 07:45:09;;;;;;;21.60;2.50;;;7.50;99.90;;;;;;5026485;28;20021;-81
2021/01/16 07:47:40;;;;;;;19.65;2.47;;;7.50;99.90;;;;;;5026365;28;20336;-79
2021/01/16 07:50:21;;;;;;;37.03;4.13;;;7.60;99.90;;;;;;5026483;28;20022;-81
2021/01/16 07:53:24;;;;;;;20.33;3.72;;;7.70;99.90;;;;;;5027419;28;20029;-81
2021/01/16 07:56:01;;;;;;;22.10;2.70;;;7.60;99.90;;;;;;5027639;28;20028;-82
2021/01/16 07:58:33;;;;;;;30.48;3.50;;;7.60;99.90;;;;;;5027860;28;20025;-80
2021/01/16 08:01:20;;;;;;;20.90;3.25;;;7.60;99.90;;;;;;5026265;28;20029;-81
2021/01/16 08:03:52;;;;;;;22.05;2.95;;;7.50;99.90;;;;;;5027573;28;20029;-81
2021/01/16 08:06:24;;;;;;;22.52;3.22;;;7.50;99.90;;;;;;5028063;28;20036;-82
2021/01/16 08:09:03;;;;;;;22.17;3.58;;;7.50;99.90;;;;;;5027436;28;20119;-80
2021/01/16 08:11:30;;;;;;;;;;;7.60;99.90;;;;;;5027585;28;20030;-81
2021/01/16 08:14:01;;;;;;;17.23;4.05;;;7.70;99.90;;;;;;5026338;28;19933;-80
2021/01/16 08:16:27;;;;;;;27.02;3.60;;;7.70;99.90;;;;;;5027517;28;20147;-79
2021/01/16 08:19:12;;;;;;;32.65;4.00;;;7.70;99.90;;;;;;5025858;28;20389;-82
2021/01/16 08:21:55;;;;;;;23.98;3.22;;;7.60;99.90;;;;;;5026008;28;20018;-79
2021/01/16 08:24:27;;;;;;;21.48;3.30;;;7.70;99.90;;;;;;5026285;28;20034;-80
2021/01/16 08:27:01;;;;;;;25.50;3.90;;;7.60;99.90;;;;;;5010472;28;20435;-82
2021/01/16 08:29:31;;;;;;;27.95;3.92;;;7.60;99.90;;;;;;5027315;28;20411;-82
2021/01/16 08:32:11;;;;;;;34.67;3.97;;;7.60;99.90;;;;;;5026391;28;20045;-82
2021/01/16 08:34:46;;;;;;;;;;;7.70;99.90;;;;;;5029903;28;20033;-80
2021/01/16 08:37:11;;;;;;;18.70;3.20;;;7.80;99.90;;;;;;5029571;28;19905;-81
2021/01/16 08:39:43;;;;;;;20.63;3.40;;;7.90;99.90;;;;;;5029261;28;20025;-78
2021/01/16 08:42:09;;;;;;;22.73;3.67;;;7.90;99.90;;;;;;5029353;28;20052;-83
2021/01/16 08:44:51;;;;;;;27.88;5.25;;;7.90;99.90;;;;;;5030572;28;20029;-83
2021/01/16 08:47:17;;;;;;;28.35;5.50;;;7.90;99.90;;;;;;5029313;28;20072;-79
2021/01/16 08:49:43;;;;;;;27.95;4.75;;;7.90;99.90;;;;;;5029376;28;20037;-80
2021/01/16 08:52:08;;;;;;;23.83;4.65;;;7.90;99.90;;;;;;5012718;28;20053;-78
2021/01/16 08:54:34;;;;;;;26.48;4.97;;;7.90;99.90;;;;;;5030407;28;20032;-80
2021/01/16 08:57:00;;;;;;;22.15;3.83;;;8.00;99.90;;;;;;5029057;28;20393;-80
2021/01/16 08:59:29;;;;;;;23.70;4.30;;;8.10;99.90;;;;;;5030482;28;20021;-79
2021/01/16 09:02:09;;;;;;;17.23;3.65;;;8.10;99.90;;;;;;5029647;28;20052;-84
2021/01/16 09:04:37;;;;;;;26.20;3.55;;;8.20;99.90;;;;;;5030297;28;20028;-79
2021/01/16 09:07:20;;;;;;;19.90;3.85;;;8.20;99.90;;;;;;5012488;28;20030;-81
2021/01/16 09:09:57;;;;;;;23.70;2.90;;;8.20;99.90;;;;;;5028898;28;20021;-79
2021/01/16 09:12:29;;;;;;;18.92;3.53;;;8.20;99.90;;;;;;5012035;28;20064;-81
2021/01/16 09:15:20;;;;;;;21.58;4.00;;;8.20;99.90;;;;;;5030257;28;20096;-80
2021/01/16 09:18:09;;;;;;;23.23;4.07;;;8.20;99.90;;;;;;5028687;28;20021;-80
2021/01/16 09:20:39;;;;;;;25.47;4.80;;;8.20;99.90;;;;;;5028714;28;20026;-80
2021/01/16 09:23:23;;;;;;;24.33;4.32;;;8.10;99.90;;;;;;5029995;28;20392;-79
2021/01/16 09:25:52;;;;;;;23.88;3.90;;;8.10;99.90;;;;;;5029885;28;20029;-82
2021/01/16 09:28:37;;;;;;;32.08;4.57;;;8.10;99.90;;;;;;5012313;28;20038;-81
2021/01/16 09:31:20;;;;;;;30.38;4.65;;;8.10;99.90;;;;;;5027980;28;20032;-80
2021/01/16 09:33:48;;;;;;;30.23;4.35;;;8.20;99.90;;;;;;5029494;28;20574;-80
2021/01/16 09:36:36;;;;;;;27.73;3.83;;;8.50;99.90;;;;;;5011761;28;20033;-79
2021/01/16 09:39:04;;;;;;;19.92;4.97;;;8.50;99.90;;;;;;5029863;28;20096;-79
2021/01/16 09:41:34;;;;;;;29.05;4.95;;;8.70;99.90;;;;;;5028033;28;20476;-81
2021/01/16 09:44:00;;;;;;;24.48;3.83;;;8.80;99.90;;;;;;5028549;28;20480;-82
2021/01/16 09:46:34;;;;;;;24.30;4.32;;;8.80;99.90;;;;;;5011704;28;20128;-80
2021/01/16 09:49:00;;;;;;;31.17;5.20;;;9.00;99.90;;;;;;5011699;28;20411;-80
2021/01/16 09:51:31;;;;;;;25.10;4.25;;;9.20;99.90;;;;;;5027929;28;20733;-79
2021/01/16 09:54:10;;;;;;;19.98;3.35;;;9.40;99.90;;;;;;5027929;28;20478;-82
2021/01/16 09:56:49;;;;;;;21.70;4.20;;;9.60;99.90;;;;;;5011485;28;20117;-81
2021/01/16 09:59:23;;;;;;;21.83;3.67;;;9.50;99.90;;;;;;5027442;28;20121;-80
2021/01/16 10:02:13;;;;;;;29.40;3.72;;;9.40;99.90;;;;;;5027761;28;20048;-67
2021/01/16 10:04:45;;;;;;;21.95;5.22;;;9.30;99.90;;;;;;5027361;28;20044;-81
2021/01/16 10:07:17;;;;;;;22.80;4.35;;;9.20;99.90;;;;;;5011661;28;20029;-80
2021/01/16 10:09:50;;;;;;;27.95;4.28;;;9.10;99.90;;;;;;5010744;28;20038;-81
2021/01/16 10:12:34;;;;;;;18.88;3.83;;;9.10;99.90;;;;;;5026985;28;20411;-80
2021/01/16 10:15:03;;;;;;;37.15;4.35;;;9.30;99.90;;;;;;5027044;28;20047;-80
2021/01/16 10:17:33;;;;;;;25.55;3.72;;;9.80;99.90;;;;;;5028426;28;20437;-82
2021/01/16 10:20:04;;;;;;;;;;;10.40;99.90;;;;;;5011054;28;20032;-79
2021/01/16 10:22:30;;;;;;;36.28;5.20;;;10.60;99.90;;;;;;5026836;28;20229;-80
2021/01/16 10:25:00;;;;;;;25.38;4.53;;;10.60;99.90;;;;;;5026826;28;20027;-82
2021/01/16 10:27:50;;;;;;;22.58;4.97;;;10.40;99.90;;;;;;5027109;28;20079;-80
2021/01/16 10:30:18;;;;;;;33.15;6.07;;;10.20;99.90;;;;;;5028440;28;20025;-79
2021/01/16 10:32:45;;;;;;;27.57;5.80;;;10.00;99.90;;;;;;5027900;28;20037;-82
2021/01/16 10:35:23;;;;;;;22.15;5.15;;;9.90;99.90;;;;;;5010531;28;20495;-79
2021/01/16 10:37:50;;;;;;;26.35;6.22;;;9.90;99.90;;;;;;5028249;28;20029;-79
2021/01/16 10:40:16;;;;;;;27.98;5.38;;;10.00;99.90;;;;;;5026567;28;20037;-79
2021/01/16 10:42:54;;;;;;;23.92;5.45;;;10.10;99.90;;;;;;5026258;28;20082;-80
2021/01/16 10:45:21;;;;;;;21.05;3.90;;;10.10;99.90;;;;;;5026600;28;20037;-79
2021/01/16 10:47:48;;;;;;;21.83;4.03;;;10.00;99.90;;;;;;5026577;28;20029;-80
2021/01/16 10:50:23;;;;;;;16.77;3.22;;;10.00;99.90;;;;;;5026546;28;20103;-80
2021/01/16 10:53:04;;;;;;;24.48;5.28;;;10.00;99.90;;;;;;5027824;28;20088;-79
2021/01/16 10:55:50;;;;;;;20.42;3.70;;;9.90;99.90;;;;;;5025847;28;20091;-80
2021/01/16 10:58:26;;;;;;;24.75;4.80;;;9.90;99.90;;;;;;5028073;28;20022;-79
2021/01/16 11:00:57;;;;;;;31.77;4.82;;;9.90;99.90;;;;;;5027111;28;20384;-80
2021/01/16 11:03:30;;;;;;;19.48;4.10;;;10.10;99.90;;;;;;5026593;28;20044;-80
2021/01/16 11:06:02;;;;;;;25.65;4.97;;;10.60;99.90;;;;;;5026217;28;20032;-79
2021/01/16 11:08:30;;;;;;;18.73;4.47;;;10.80;99.90;;;;;;5028388;28;20079;-80
2021/01/16 11:10:57;;;;;;;26.67;4.97;;;10.80;99.90;;;;;;5026741;28;20058;-80
2021/01/16 11:13:27;;;;;;;22.45;4.68;;;11.00;99.90;;;;;;5009832;28;20045;-80
2021/01/16 11:16:11;;;;;;;21.27;4.28;;;11.30;99.90;;;;;;5027178;28;20472;-79
2021/01/16 11:18:38;;;;;;;22.45;4.30;;;11.70;99.90;;;;;;5025777;28;20057;-78
2021/01/16 11:21:08;;;;;;;27.95;6.30;;;11.90;99.90;;;;;;5026375;28;20024;-83
2021/01/16 11:23:44;;;;;;;23.88;4.70;;;12.10;99.90;;;;;;5028088;28;20053;-82
2021/01/16 11:26:10;;;;;;;17.60;3.55;;;12.50;99.90;;;;;;5025892;28;20037;-80
2021/01/16 11:28:51;;;;;;;23.05;4.90;;;12.90;99.40;;;;;;5009516;28;20034;-80
2021/01/16 11:31:31;;;;;;;18.40;4.20;;;13.30;98.80;;;;;;5027257;28;20488;-80
2021/01/16 11:34:09;;;;;;;23.40;5.22;;;13.60;98.30;;;;;;5025941;28;20040;-78
2021/01/16 11:37:04;;;;;;;22.65;4.38;;;13.50;96.60;;;;;;5026124;28;20021;-82
2021/01/16 11:39:47;;;;;;;19.38;4.90;;;13.20;96.60;;;;;;5026309;28;20022;-80
2021/01/16 11:42:14;;;;;;;28.88;6.18;;;12.90;96.40;;;;;;5026408;28;20057;-79
2021/01/16 11:45:00;;;;;;;22.42;6.07;;;12.60;96.40;;;;;;5027410;28;20524;-80
2021/01/16 11:47:28;;;;;;;17.33;5.32;;;12.20;96.50;;;;;;5025880;28;20029;-78
2021/01/16 11:49:54;;;;;;;20.63;5.00;;;11.80;96.80;;;;;;5027326;28;20033;-79
2021/01/16 11:52:20;;;;;;;22.70;4.85;;;11.70;97.40;;;;;;5025464;28;20026;-81
2021/01/16 11:54:48;;;;;;;22.00;5.03;;;11.90;98.60;;;;;;5026812;28;20480;-79
2021/01/16 11:57:18;;;;;;;16.85;4.03;;;12.20;98.80;;;;;;5009620;28;20045;-81
2021/01/16 11:59:45;;;;;;;16.70;3.72;;;12.70;98.50;;;;;;5026874;28;20047;-79
2021/01/16 12:02:19;;;;;;;25.90;5.45;;;12.90;98.00;;;;;;5009810;28;20048;-81
2021/01/16 12:04:46;;;;;;;19.23;3.72;;;13.10;97.40;;;;;;5027196;28;20483;-82
2021/01/16 12:07:13;;;;;;;16.55;4.60;;;13.20;97.00;;;;;;5029168;28;20013;-81
2021/01/16 12:09:43;;;;;;;20.17;4.40;;;13.30;97.20;;;;;;5029959;28;20392;-80
2021/01/16 12:12:11;;;;;;;19.58;3.92;;;13.50;96.80;;;;;;5029271;28;20041;-82
2021/01/16 12:14:39;;;;;;;16.90;3.60;;;13.50;96.30;;;;;;5030559;28;20040;-82
2021/01/16 12:17:10;;;;;;;16.60;3.92;;;13.50;96.10;;;;;;5030827;28;20033;-80
2021/01/16 12:19:37;;;;;;;17.35;4.35;;;13.50;95.80;;;;;;5030366;28;20018;-80
2021/01/16 12:22:08;;;;;;;20.63;4.15;;;13.40;95.60;;;;;;5028900;28;20105;-78
2021/01/16 12:24:35;;;;;;;24.65;4.05;;;13.20;95.10;;;;;;5030242;28;20049;-80
2021/01/16 12:27:04;;;;;;;17.90;3.97;;;13.10;95.00;;;;;;5030459;28;20041;-80
2021/01/16 12:29:47;;;;;;;20.55;4.40;;;13.20;95.70;;;;;;5028517;28;20025;-79
2021/01/16 12:32:14;;;;;;;24.63;3.97;;;13.30;95.50;;;;;;5028436;28;20066;-80
2021/01/16 12:34:50;;;;;;;26.15;5.53;;;13.40;95.80;;;;;;5012425;28;20480;-80
2021/01/16 12:37:30;;;;;;;21.23;4.50;;;13.70;95.50;;;;;;5030004;28;20072;-80
2021/01/16 12:40:00;;;;;;;14.43;4.30;;;14.10;95.40;;;;;;5028812;28;20022;-79
2021/01/16 12:42:30;;;;;;;27.75;5.15;;;14.40;95.20;;;;;;5028447;28;20033;-81
2021/01/16 12:45:19;;;;;;;27.00;4.90;;;14.60;94.10;;;;;;5029317;28;20116;-78
2021/01/16 12:47:53;;;;;;;27.83;3.67;;;14.60;93.40;;;;;;5028379;28;20444;-80
2021/01/16 12:50:21;;;;;;;16.35;4.60;;;14.40;92.70;;;;;;5028845;28;20025;-79
2021/01/16 12:52:49;;;;;;;23.50;4.13;;;14.10;92.20;;;;;;5028065;28;20345;-79
2021/01/16 12:55:23;;;;;;;21.95;3.90;;;13.80;92.50;;;;;;5029636;28;20021;-79
2021/01/16 12:57:53;;;;;;;15.15;4.40;;;13.50;92.20;;;;;;5028556;28;20025;-79
2021/01/16 13:00:25;;;;;;;19.52;5.15;;;13.10;92.20;;;;;;5028376;28;20037;-80
2021/01/16 13:02:59;;;;;;;24.30;3.72;;;12.70;92.30;;;;;;5028052;28;20033;-79